Xing Hao Hai — VRPF5 — position and weather

sailwx.info

Track history (hours):
 
Tides and Currents Weather Stations Pressure Air Temp Water Temp Dewpoint Dewpoint Depression Visibility Wind Speed Wind Dir Waves Ship Positions

Xing Hao Hai

Last reported at 2018-Jul-15 04:03 UTC. Time now 2018-Jul-18 14:40 UTC.
Position N 31°18' E 121°46'.

Length 200 m; draft 11.3 m.

Type: Cargo ship. MMSI: 477730800.

Date/timePositionNaut miles runAvg speedWind from/ knotsBaromVisibWave heightAir tempDewpointWater temp
2018-Jul-15 04:03N 31°18' E 121°46'112.6
2018-Jul-15 04:00N 31°18' E 121°46'810.5
2018-Jul-15 03:16N 31°16' E 121°55'310.6
2018-Jul-15 02:58N 31°15' E 121°59'1210.7
2018-Jul-15 01:53N 31°11' E 122°11'511.6
2018-Jul-15 01:24N 31°07' E 122°16'613.1
2018-Jul-15 00:59N 31°06' E 122°23'  
2018-Jul-07 17:53N 38°04' E 121°57'7712.2
2018-Jul-07 11:36N 38°37' E 120°29'110.3
2018-Jul-07 11:29N 38°37' E 120°27'910.4
2018-Jul-07 10:35N 38°38' E 120°15'210.4
2018-Jul-07 10:23N 38°38' E 120°13'  
Track history (hours):
 
Tides and Currents Weather Stations Pressure Air Temp Water Temp Dewpoint Dewpoint Depression Visibility Wind Speed Wind Dir Waves Ship Positions

Xing Hao Hai

Last reported at 2018-Jul-15 04:03 UTC. Time now 2018-Jul-18 14:40 UTC.
Position N 31°18' E 121°46'.

Length 200 m; draft 11.3 m.

Type: Cargo ship. MMSI: 477730800.

Date/timePositionNaut miles runAvg speedWind from/ knotsBaromVisibWave heightAir tempDewpointWater temp
2018-Jul-15 04:03N 31°18' E 121°46'112.6
2018-Jul-15 04:00N 31°18' E 121°46'810.5
2018-Jul-15 03:16N 31°16' E 121°55'310.6
2018-Jul-15 02:58N 31°15' E 121°59'1210.7
2018-Jul-15 01:53N 31°11' E 122°11'511.6
2018-Jul-15 01:24N 31°07' E 122°16'613.1
2018-Jul-15 00:59N 31°06' E 122°23'  
2018-Jul-07 17:53N 38°04' E 121°57'7712.2
2018-Jul-07 11:36N 38°37' E 120°29'110.3
2018-Jul-07 11:29N 38°37' E 120°27'910.4
2018-Jul-07 10:35N 38°38' E 120°15'210.4
2018-Jul-07 10:23N 38°38' E 120°13'  

Dump ship's entire track history